Main page
METAR-TAF:

METAR-TAF

Airports :

Houston Southwest Airport

Houston, Texas, United States

latitude: 29-30-22N, longitude: 095-28-37W, elevation: 69 ft

Current weather observation

The report was made 26 minutes ago, at 21:15 UTC
Wind 9 mph from the South with gusts up to 22 mph
Temperature 77°F
Humidity 79%
Pressure 29.86 in. Hg
Visibility: 10 miles
Broken clouds at a height of 2500 ft
Broken clouds at a height of 3300 ft
Overcast at a height of 3900 ft

METAR: KAXH 172115Z AUTO 17008G19KT 10SM BKN025 BKN033 OVC039 25/21 A2986 RMK AO2 T02520206

Time: 14:41 (21:41 UTC)


TAF: missing

Weather observations and forecasts of more than 4000 airports (METAR and TAF reports).

The available stations are represented by yellow and red dots on the map.

Hover mouse over dot to see the name of the station.

Then click to see weather observations and forecasts.

To change the map : click on the green buttons with a black cross to zoom in, on the green button with a dash to zoom out, or on the green arrows for adjacent maps.


METAR-TAF: